sensor_id;sensor_type;location;lat;lon;timestamp;pressure;altitude;pressure_sealevel;temperature;humidity
48778;BME280;34578;0.000;0.000;2023-07-20T00:01:11;96639.13;;;21.42;52.48
48778;BME280;34578;0.000;0.000;2023-07-20T00:06:12;96645.16;;;21.35;52.68
48778;BME280;34578;0.000;0.000;2023-07-20T00:11:12;96638.38;;;21.33;53.30
48778;BME280;34578;0.000;0.000;2023-07-20T00:16:13;96636.78;;;21.26;53.13
48778;BME280;34578;0.000;0.000;2023-07-20T00:21:14;96629.13;;;21.27;53.38
48778;BME280;34578;0.000;0.000;2023-07-20T00:26:15;96646.13;;;21.25;53.53
48778;BME280;34578;0.000;0.000;2023-07-20T00:31:15;96647.88;;;21.22;53.67
48778;BME280;34578;0.000;0.000;2023-07-20T00:36:16;96640.25;;;21.20;54.04
48778;BME280;34578;0.000;0.000;2023-07-20T00:41:16;96638.63;;;21.15;54.22
48778;BME280;34578;0.000;0.000;2023-07-20T00:46:17;96642.84;;;21.14;54.10
48778;BME280;34578;0.000;0.000;2023-07-20T00:51:20;96641.16;;;21.13;53.97
48778;BME280;34578;0.000;0.000;2023-07-20T00:56:22;96628.50;;;21.09;53.78
48778;BME280;34578;0.000;0.000;2023-07-20T01:01:22;96630.22;;;21.07;53.83
48778;BME280;34578;0.000;0.000;2023-07-20T01:06:48;96631.91;;;21.09;54.34
48778;BME280;34578;0.000;0.000;2023-07-20T01:16:52;96623.50;;;21.01;55.07
48778;BME280;34578;0.000;0.000;2023-07-20T01:21:59;96626.03;;;21.01;54.79
48778;BME280;34578;0.000;0.000;2023-07-20T01:32:23;96622.81;;;20.87;55.46
48778;BME280;34578;0.000;0.000;2023-07-20T01:37:26;96624.47;;;20.91;55.68
48778;BME280;34578;0.000;0.000;2023-07-20T01:42:29;96621.13;;;20.88;56.31
48778;BME280;34578;0.000;0.000;2023-07-20T01:47:30;96615.19;;;20.84;56.36
48778;BME280;34578;0.000;0.000;2023-07-20T01:52:30;96616.00;;;20.89;56.37
48778;BME280;34578;0.000;0.000;2023-07-20T01:57:31;96617.66;;;20.90;56.47
48778;BME280;34578;0.000;0.000;2023-07-20T02:02:34;96610.97;;;20.83;56.54
48778;BME280;34578;0.000;0.000;2023-07-20T02:07:34;96612.66;;;20.81;55.91
48778;BME280;34578;0.000;0.000;2023-07-20T02:12:35;96611.84;;;20.78;56.61
48778;BME280;34578;0.000;0.000;2023-07-20T02:17:35;96612.75;;;20.75;56.56
48778;BME280;34578;0.000;0.000;2023-07-20T02:22:38;96603.44;;;20.70;56.80
48778;BME280;34578;0.000;0.000;2023-07-20T02:27:39;96605.16;;;20.68;56.64
48778;BME280;34578;0.000;0.000;2023-07-20T02:32:39;96596.66;;;20.69;56.36
48778;BME280;34578;0.000;0.000;2023-07-20T02:37:40;96606.03;;;20.65;56.75
48778;BME280;34578;0.000;0.000;2023-07-20T02:42:40;96607.78;;;20.62;56.55
48778;BME280;34578;0.000;0.000;2023-07-20T02:47:40;96608.69;;;20.56;56.49
48778;BME280;34578;0.000;0.000;2023-07-20T02:52:41;96614.63;;;20.55;56.46
48778;BME280;34578;0.000;0.000;2023-07-20T02:57:41;96606.16;;;20.53;55.25
48778;BME280;34578;0.000;0.000;2023-07-20T03:02:42;96602.81;;;20.51;55.43
48778;BME280;34578;0.000;0.000;2023-07-20T03:07:42;96607.91;;;20.51;55.30
48778;BME280;34578;0.000;0.000;2023-07-20T03:12:43;96604.47;;;20.54;55.10
48778;BME280;34578;0.000;0.000;2023-07-20T03:17:44;96614.66;;;20.54;54.59
48778;BME280;34578;0.000;0.000;2023-07-20T03:22:44;96608.75;;;20.50;54.96
48778;BME280;34578;0.000;0.000;2023-07-20T03:27:45;96606.22;;;20.50;54.57
48778;BME280;34578;0.000;0.000;2023-07-20T03:32:46;96607.91;;;20.48;55.00
48778;BME280;34578;0.000;0.000;2023-07-20T03:37:46;96616.41;;;20.47;54.94
48778;BME280;34578;0.000;0.000;2023-07-20T03:42:46;96625.75;;;20.45;55.04
48778;BME280;34578;0.000;0.000;2023-07-20T03:47:47;96616.44;;;20.44;55.40
48778;BME280;34578;0.000;0.000;2023-07-20T03:52:48;96619.78;;;20.46;55.06
48778;BME280;34578;0.000;0.000;2023-07-20T03:57:51;96621.47;;;20.47;55.28
48778;BME280;34578;0.000;0.000;2023-07-20T04:02:51;96623.16;;;20.48;55.38
48778;BME280;34578;0.000;0.000;2023-07-20T04:07:52;96625.63;;;20.57;55.54
48778;BME280;34578;0.000;0.000;2023-07-20T04:12:52;96621.38;;;20.56;55.16
48778;BME280;34578;0.000;0.000;2023-07-20T04:17:52;96635.72;;;20.66;54.67
48778;BME280;34578;0.000;0.000;2023-07-20T04:22:55;96628.19;;;20.54;54.82
48778;BME280;34578;0.000;0.000;2023-07-20T04:27:56;96634.19;;;20.49;54.66
48778;BME280;34578;0.000;0.000;2023-07-20T04:32:57;96627.47;;;20.42;54.85
48778;BME280;34578;0.000;0.000;2023-07-20T04:37:57;96635.06;;;20.49;54.92
48778;BME280;34578;0.000;0.000;2023-07-20T04:42:59;96634.22;;;20.46;54.96
48778;BME280;34578;0.000;0.000;2023-07-20T04:48:00;96634.25;;;20.44;54.70
48778;BME280;34578;0.000;0.000;2023-07-20T04:53:01;96630.84;;;20.45;54.24
48778;BME280;34578;0.000;0.000;2023-07-20T04:58:03;96631.72;;;20.42;54.64
48778;BME280;34578;0.000;0.000;2023-07-20T05:03:05;96631.59;;;20.53;54.32
48778;BME280;34578;0.000;0.000;2023-07-20T05:08:06;96633.22;;;20.62;54.26
48778;BME280;34578;0.000;0.000;2023-07-20T05:13:06;96637.63;;;20.45;54.60
48778;BME280;34578;0.000;0.000;2023-07-20T05:18:07;96633.41;;;20.39;54.84
48778;BME280;34578;0.000;0.000;2023-07-20T05:23:08;96631.78;;;20.36;55.22
48778;BME280;34578;0.000;0.000;2023-07-20T05:28:08;96631.75;;;20.38;55.37
48778;BME280;34578;0.000;0.000;2023-07-20T05:33:09;96637.69;;;20.39;55.88
48778;BME280;34578;0.000;0.000;2023-07-20T05:38:09;96626.66;;;20.38;56.26
48778;BME280;34578;0.000;0.000;2023-07-20T05:43:10;96640.16;;;20.46;56.04
48778;BME280;34578;0.000;0.000;2023-07-20T05:48:10;96637.59;;;20.46;56.00
48778;BME280;34578;0.000;0.000;2023-07-20T05:53:11;96637.63;;;20.45;55.46
48778;BME280;34578;0.000;0.000;2023-07-20T05:58:12;96645.22;;;20.46;55.48
48778;BME280;34578;0.000;0.000;2023-07-20T06:03:12;96646.13;;;20.41;56.25
48778;BME280;34578;0.000;0.000;2023-07-20T06:08:13;96641.88;;;20.44;56.21
48778;BME280;34578;0.000;0.000;2023-07-20T06:13:13;96652.06;;;20.42;55.78
48778;BME280;34578;0.000;0.000;2023-07-20T06:18:13;96646.94;;;20.44;55.66
48778;BME280;34578;0.000;0.000;2023-07-20T06:23:14;96646.13;;;20.41;55.98
48778;BME280;34578;0.000;0.000;2023-07-20T06:28:14;96643.53;;;20.45;56.06
48778;BME280;34578;0.000;0.000;2023-07-20T06:33:14;96638.38;;;20.56;55.97
48778;BME280;34578;0.000;0.000;2023-07-20T06:38:15;96639.13;;;20.64;55.94
48778;BME280;34578;0.000;0.000;2023-07-20T06:43:15;96642.53;;;20.63;55.67
48778;BME280;34578;0.000;0.000;2023-07-20T06:48:16;96639.06;;;20.71;55.35
48778;BME280;34578;0.000;0.000;2023-07-20T06:53:16;96641.53;;;20.79;55.23
48778;BME280;34578;0.000;0.000;2023-07-20T06:58:18;96636.47;;;20.77;53.39
48778;BME280;34578;0.000;0.000;2023-07-20T07:03:21;96629.59;;;20.85;52.92
48778;BME280;34578;0.000;0.000;2023-07-20T07:08:21;96631.94;;;21.05;53.80
48778;BME280;34578;0.000;0.000;2023-07-20T07:13:22;96628.53;;;21.04;52.91
48778;BME280;34578;0.000;0.000;2023-07-20T07:18:22;96626.00;;;21.06;52.44
48778;BME280;34578;0.000;0.000;2023-07-20T07:23:25;96628.59;;;21.01;51.71
48778;BME280;34578;0.000;0.000;2023-07-20T07:28:25;96633.59;;;21.07;51.73
48778;BME280;34578;0.000;0.000;2023-07-20T07:33:25;96633.75;;;20.94;51.55
48778;BME280;34578;0.000;0.000;2023-07-20T07:38:26;96642.25;;;20.93;51.49
48778;BME280;34578;0.000;0.000;2023-07-20T07:43:27;96631.72;;;21.21;52.16
48778;BME280;34578;0.000;0.000;2023-07-20T07:48:27;96633.50;;;21.16;51.84
48778;BME280;34578;0.000;0.000;2023-07-20T07:53:27;96625.75;;;21.25;51.76
48778;BME280;34578;0.000;0.000;2023-07-20T07:58:28;96633.41;;;21.22;51.50
48778;BME280;34578;0.000;0.000;2023-07-20T08:03:28;96634.41;;;21.12;50.15
48778;BME280;34578;0.000;0.000;2023-07-20T08:08:31;96626.69;;;21.18;49.90
48778;BME280;34578;0.000;0.000;2023-07-20T08:13:31;96631.03;;;21.10;49.12
48778;BME280;34578;0.000;0.000;2023-07-20T08:18:32;96625.88;;;21.16;49.15
48778;BME280;34578;0.000;0.000;2023-07-20T08:23:32;96629.13;;;21.24;50.10
48778;BME280;34578;0.000;0.000;2023-07-20T08:28:33;96634.22;;;21.24;50.59
48778;BME280;34578;0.000;0.000;2023-07-20T08:33:36;96617.94;;;21.39;51.03
48778;BME280;34578;0.000;0.000;2023-07-20T08:38:37;96632.56;;;21.23;50.36
48778;BME280;34578;0.000;0.000;2023-07-20T08:43:41;96623.22;;;21.25;50.61
48778;BME280;34578;0.000;0.000;2023-07-20T08:48:42;96613.00;;;21.27;50.67
48778;BME280;34578;0.000;0.000;2023-07-20T08:53:45;96615.91;;;21.63;51.50
48778;BME280;34578;0.000;0.000;2023-07-20T08:58:46;96618.03;;;21.31;51.32
48778;BME280;34578;0.000;0.000;2023-07-20T09:03:47;96616.16;;;21.44;50.96
48778;BME280;34578;0.000;0.000;2023-07-20T09:08:48;96614.47;;;21.44;50.52
48778;BME280;34578;0.000;0.000;2023-07-20T09:14:02;96611.06;;;21.45;50.02
48778;BME280;34578;0.000;0.000;2023-07-20T09:19:03;96613.56;;;21.48;50.75
48778;BME280;34578;0.000;0.000;2023-07-20T09:24:03;96611.88;;;21.47;51.43
48778;BME280;34578;0.000;0.000;2023-07-20T09:29:07;96609.31;;;21.47;51.20
48778;BME280;34578;0.000;0.000;2023-07-20T09:34:09;96603.22;;;21.57;52.32
48778;BME280;34578;0.000;0.000;2023-07-20T09:39:10;96600.56;;;21.71;52.89
48778;BME280;34578;0.000;0.000;2023-07-20T09:44:10;96594.63;;;21.64;51.34
48778;BME280;34578;0.000;0.000;2023-07-20T09:49:11;96590.47;;;21.59;51.35
48778;BME280;34578;0.000;0.000;2023-07-20T09:54:13;96585.44;;;21.54;51.14
48778;BME280;34578;0.000;0.000;2023-07-20T09:59:13;96578.69;;;21.52;50.83
48778;BME280;34578;0.000;0.000;2023-07-20T10:04:16;96573.59;;;21.53;51.05
48778;BME280;34578;0.000;0.000;2023-07-20T10:09:19;96568.50;;;21.52;51.05
48778;BME280;34578;0.000;0.000;2023-07-20T10:14:23;96569.22;;;21.60;52.02
48778;BME280;34578;0.000;0.000;2023-07-20T10:19:57;96547.25;;;21.53;54.04
48778;BME280;34578;0.000;0.000;2023-07-20T10:25:01;96563.88;;;21.79;53.52
48778;BME280;34578;0.000;0.000;2023-07-20T10:30:02;96554.59;;;21.75;52.37
48778;BME280;34578;0.000;0.000;2023-07-20T10:35:12;96553.75;;;21.73;52.87
48778;BME280;34578;0.000;0.000;2023-07-20T10:40:29;96543.69;;;21.64;50.34
48778;BME280;34578;0.000;0.000;2023-07-20T10:50:35;96533.44;;;21.69;49.27
48778;BME280;34578;0.000;0.000;2023-07-20T10:55:36;96537.72;;;21.68;48.89
48778;BME280;34578;0.000;0.000;2023-07-20T11:00:36;96535.97;;;21.70;48.01
48778;BME280;34578;0.000;0.000;2023-07-20T11:05:38;96535.94;;;21.73;48.20
48778;BME280;34578;0.000;0.000;2023-07-20T11:10:39;96526.66;;;21.71;48.13
48778;BME280;34578;0.000;0.000;2023-07-20T11:15:47;96512.09;;;21.77;47.82
48778;BME280;34578;0.000;0.000;2023-07-20T11:20:50;96507.75;;;21.82;49.68
48778;BME280;34578;0.000;0.000;2023-07-20T11:25:50;96495.94;;;21.78;48.49
48778;BME280;34578;0.000;0.000;2023-07-20T11:30:52;96512.03;;;21.79;50.11
48778;BME280;34578;0.000;0.000;2023-07-20T11:35:54;96492.56;;;21.76;48.29
48778;BME280;34578;0.000;0.000;2023-07-20T11:40:54;96494.28;;;21.74;49.17
48778;BME280;34578;0.000;0.000;2023-07-20T11:45:54;96484.94;;;21.75;48.35
48778;BME280;34578;0.000;0.000;2023-07-20T11:50:55;96490.06;;;21.73;47.93
48778;BME280;34578;0.000;0.000;2023-07-20T11:55:55;96484.06;;;21.77;46.90
48778;BME280;34578;0.000;0.000;2023-07-20T12:00:56;96477.13;;;21.85;47.63
48778;BME280;34578;0.000;0.000;2023-07-20T12:06:06;96478.75;;;21.89;50.33
48778;BME280;34578;0.000;0.000;2023-07-20T12:11:07;96472.84;;;21.87;50.05
48778;BME280;34578;0.000;0.000;2023-07-20T12:16:15;96468.72;;;21.80;51.63
48778;BME280;34578;0.000;0.000;2023-07-20T12:21:19;96456.84;;;21.79;51.29
48778;BME280;34578;0.000;0.000;2023-07-20T12:26:19;96459.22;;;21.90;52.54
48778;BME280;34578;0.000;0.000;2023-07-20T12:31:20;96450.72;;;21.89;51.99
48778;BME280;34578;0.000;0.000;2023-07-20T12:36:24;96453.38;;;21.83;48.71
48778;BME280;34578;0.000;0.000;2023-07-20T12:41:24;96443.13;;;21.85;49.26
48778;BME280;34578;0.000;0.000;2023-07-20T12:46:25;96437.94;;;21.92;50.39
48778;BME280;34578;0.000;0.000;2023-07-20T12:51:25;96427.59;;;21.98;50.54
48778;BME280;34578;0.000;0.000;2023-07-20T12:56:25;96415.91;;;21.88;48.98
48778;BME280;34578;0.000;0.000;2023-07-20T13:01:26;96418.47;;;21.87;46.99
48778;BME280;34578;0.000;0.000;2023-07-20T13:06:26;96420.25;;;21.83;48.39
48778;BME280;34578;0.000;0.000;2023-07-20T13:11:26;96422.00;;;21.80;48.20
48778;BME280;34578;0.000;0.000;2023-07-20T13:16:29;96404.09;;;21.84;46.75
48778;BME280;34578;0.000;0.000;2023-07-20T13:21:29;96405.78;;;21.82;48.02
48778;BME280;34578;0.000;0.000;2023-07-20T13:26:30;96399.03;;;21.81;47.79
48778;BME280;34578;0.000;0.000;2023-07-20T13:31:30;96404.75;;;21.94;50.52
48778;BME280;34578;0.000;0.000;2023-07-20T13:36:30;96393.72;;;21.93;49.13
48778;BME280;34578;0.000;0.000;2023-07-20T13:41:31;96391.22;;;21.90;46.92
48778;BME280;34578;0.000;0.000;2023-07-20T13:46:32;96394.72;;;21.85;48.12
48778;BME280;34578;0.000;0.000;2023-07-20T13:51:32;96387.13;;;21.82;47.46
48778;BME280;34578;0.000;0.000;2023-07-20T13:56:33;96389.59;;;21.86;47.11
48778;BME280;34578;0.000;0.000;2023-07-20T14:01:35;96383.69;;;21.84;47.46
48778;BME280;34578;0.000;0.000;2023-07-20T14:06:36;96382.06;;;21.80;48.30
48778;BME280;34578;0.000;0.000;2023-07-20T14:11:36;96372.81;;;21.76;49.01
48778;BME280;34578;0.000;0.000;2023-07-20T14:16:37;96361.69;;;21.79;50.53
48778;BME280;34578;0.000;0.000;2023-07-20T14:21:39;96370.72;;;21.96;51.58
48778;BME280;34578;0.000;0.000;2023-07-20T14:26:40;96365.69;;;21.93;50.64
48778;BME280;34578;0.000;0.000;2023-07-20T14:31:40;96362.38;;;21.88;49.89
48778;BME280;34578;0.000;0.000;2023-07-20T14:36:40;96350.59;;;21.83;50.37
48778;BME280;34578;0.000;0.000;2023-07-20T14:41:41;96342.97;;;21.81;51.08
48778;BME280;34578;0.000;0.000;2023-07-20T14:46:41;96347.25;;;21.79;50.77
48778;BME280;34578;0.000;0.000;2023-07-20T14:51:42;96338.81;;;21.77;50.41
48778;BME280;34578;0.000;0.000;2023-07-20T14:56:50;96334.56;;;21.76;50.95
48778;BME280;34578;0.000;0.000;2023-07-20T15:01:52;96333.69;;;21.77;50.71
48778;BME280;34578;0.000;0.000;2023-07-20T15:06:53;96332.47;;;21.96;52.75
48778;BME280;34578;0.000;0.000;2023-07-20T15:11:54;96329.00;;;22.00;52.43
48778;BME280;34578;0.000;0.000;2023-07-20T15:16:55;96320.69;;;21.92;51.17
48778;BME280;34578;0.000;0.000;2023-07-20T15:21:55;96327.56;;;21.87;51.23
48778;BME280;34578;0.000;0.000;2023-07-20T15:26:56;96308.03;;;21.86;52.77
48778;BME280;34578;0.000;0.000;2023-07-20T15:31:57;96306.28;;;21.88;53.94
48778;BME280;34578;0.000;0.000;2023-07-20T15:36:58;96305.41;;;21.89;53.20
48778;BME280;34578;0.000;0.000;2023-07-20T15:41:58;96295.38;;;21.82;52.77
48778;BME280;34578;0.000;0.000;2023-07-20T15:46:59;96292.84;;;21.80;51.79
48778;BME280;34578;0.000;0.000;2023-07-20T15:51:59;96294.31;;;21.93;54.07
48778;BME280;34578;0.000;0.000;2023-07-20T15:57:00;96285.50;;;22.08;54.09
48778;BME280;34578;0.000;0.000;2023-07-20T16:02:01;96283.13;;;22.00;53.50
48778;BME280;34578;0.000;0.000;2023-07-20T16:07:01;96272.28;;;21.89;52.09
48778;BME280;34578;0.000;0.000;2023-07-20T16:12:03;96280.81;;;21.87;52.04
48778;BME280;34578;0.000;0.000;2023-07-20T16:17:04;96283.44;;;21.85;51.69
48778;BME280;34578;0.000;0.000;2023-07-20T16:22:05;96273.38;;;21.78;52.40
48778;BME280;34578;0.000;0.000;2023-07-20T16:27:06;96268.19;;;21.82;52.65
48778;BME280;34578;0.000;0.000;2023-07-20T16:32:07;96265.31;;;21.97;54.06
48778;BME280;34578;0.000;0.000;2023-07-20T16:37:07;96271.09;;;22.05;54.14
48778;BME280;34578;0.000;0.000;2023-07-20T16:42:09;96272.97;;;21.97;52.20
48778;BME280;34578;0.000;0.000;2023-07-20T16:47:10;96273.13;;;21.90;52.09
48778;BME280;34578;0.000;0.000;2023-07-20T16:52:10;96263.91;;;21.84;52.41
48778;BME280;34578;0.000;0.000;2023-07-20T16:57:11;96268.19;;;21.82;51.50
48778;BME280;34578;0.000;0.000;2023-07-20T17:02:11;96262.25;;;21.83;51.77
48778;BME280;34578;0.000;0.000;2023-07-20T17:07:11;96261.28;;;21.87;52.81
48778;BME280;34578;0.000;0.000;2023-07-20T17:12:14;96257.56;;;22.03;54.83
48778;BME280;34578;0.000;0.000;2023-07-20T17:17:14;96267.63;;;22.09;53.09
48778;BME280;34578;0.000;0.000;2023-07-20T17:22:15;96262.72;;;22.00;52.21
48778;BME280;34578;0.000;0.000;2023-07-20T17:27:15;96263.56;;;21.99;52.11
48778;BME280;34578;0.000;0.000;2023-07-20T17:32:15;96261.09;;;21.96;52.14
48778;BME280;34578;0.000;0.000;2023-07-20T17:37:16;96258.53;;;21.96;52.19
48778;BME280;34578;0.000;0.000;2023-07-20T17:42:18;96255.19;;;21.94;52.19
48778;BME280;34578;0.000;0.000;2023-07-20T17:47:19;96261.16;;;21.93;52.32
48778;BME280;34578;0.000;0.000;2023-07-20T17:52:19;96253.44;;;21.98;51.65
48778;BME280;34578;0.000;0.000;2023-07-20T17:57:20;96259.94;;;22.11;53.29
48778;BME280;34578;0.000;0.000;2023-07-20T18:02:21;96257.56;;;22.03;51.18
48778;BME280;34578;0.000;0.000;2023-07-20T18:07:25;96261.88;;;22.00;50.93
48778;BME280;34578;0.000;0.000;2023-07-20T18:12:25;96256.84;;;21.97;50.92
48778;BME280;34578;0.000;0.000;2023-07-20T18:17:26;96258.63;;;21.93;51.05
48778;BME280;34578;0.000;0.000;2023-07-20T18:22:26;96257.78;;;21.91;51.13
48778;BME280;34578;0.000;0.000;2023-07-20T18:27:27;96245.16;;;21.87;51.25
48778;BME280;34578;0.000;0.000;2023-07-20T18:32:30;96260.91;;;22.05;52.74
48778;BME280;34578;0.000;0.000;2023-07-20T18:37:30;96258.22;;;22.11;52.53
48778;BME280;34578;0.000;0.000;2023-07-20T18:42:33;96249.09;;;22.01;51.70
48778;BME280;34578;0.000;0.000;2023-07-20T18:47:34;96260.25;;;21.96;51.74
48778;BME280;34578;0.000;0.000;2023-07-20T18:52:35;96260.28;;;21.94;51.88
48778;BME280;34578;0.000;0.000;2023-07-20T18:57:35;96267.16;;;21.92;51.84
48778;BME280;34578;0.000;0.000;2023-07-20T19:02:36;96274.06;;;21.86;51.70
48778;BME280;34578;0.000;0.000;2023-07-20T19:07:37;96271.59;;;21.81;51.28
48778;BME280;34578;0.000;0.000;2023-07-20T19:12:39;96264.78;;;21.83;51.25
48778;BME280;34578;0.000;0.000;2023-07-20T19:17:40;96257.28;;;21.74;51.08
48778;BME280;34578;0.000;0.000;2023-07-20T19:22:42;96276.66;;;21.84;50.96
48778;BME280;34578;0.000;0.000;2023-07-20T19:27:43;96286.88;;;21.83;51.72
48778;BME280;34578;0.000;0.000;2023-07-20T19:32:43;96284.31;;;21.83;51.43
48778;BME280;34578;0.000;0.000;2023-07-20T19:37:43;96287.75;;;21.82;51.39
48778;BME280;34578;0.000;0.000;2023-07-20T19:42:44;96290.56;;;21.68;51.52
48778;BME280;34578;0.000;0.000;2023-07-20T19:47:47;96290.56;;;21.68;51.12
48778;BME280;34578;0.000;0.000;2023-07-20T19:52:47;96286.97;;;21.77;51.37
48778;BME280;34578;0.000;0.000;2023-07-20T19:57:49;96297.91;;;21.83;52.71
48778;BME280;34578;0.000;0.000;2023-07-20T20:02:49;96305.03;;;21.66;51.02
48778;BME280;34578;0.000;0.000;2023-07-20T20:07:49;96303.47;;;21.58;51.16
48778;BME280;34578;0.000;0.000;2023-07-20T20:12:50;96306.00;;;21.59;51.04
48778;BME280;34578;0.000;0.000;2023-07-20T20:17:50;96311.25;;;21.50;51.41
48778;BME280;34578;0.000;0.000;2023-07-20T20:22:52;96313.94;;;21.43;51.11
48778;BME280;34578;0.000;0.000;2023-07-20T20:27:54;96310.25;;;21.59;50.64
48778;BME280;34578;0.000;0.000;2023-07-20T20:32:54;96316.09;;;21.65;50.86
48778;BME280;34578;0.000;0.000;2023-07-20T20:37:55;96327.84;;;21.72;51.36
48778;BME280;34578;0.000;0.000;2023-07-20T20:42:55;96322.47;;;21.86;51.46
48778;BME280;34578;0.000;0.000;2023-07-20T20:47:56;96322.53;;;21.84;50.78
48778;BME280;34578;0.000;0.000;2023-07-20T20:52:59;96319.25;;;21.31;51.70
48778;BME280;34578;0.000;0.000;2023-07-20T20:57:59;96315.38;;;21.10;52.17
48778;BME280;34578;0.000;0.000;2023-07-20T21:03:00;96314.59;;;21.05;52.46
48778;BME280;34578;0.000;0.000;2023-07-20T21:08:00;96306.25;;;20.97;52.10
48778;BME280;34578;0.000;0.000;2023-07-20T21:13:01;96320.75;;;20.92;52.31
48778;BME280;34578;0.000;0.000;2023-07-20T21:18:04;96317.34;;;20.93;51.58
48778;BME280;34578;0.000;0.000;2023-07-20T21:23:04;96320.00;;;20.86;52.14
48778;BME280;34578;0.000;0.000;2023-07-20T21:28:04;96315.06;;;20.75;52.29
48778;BME280;34578;0.000;0.000;2023-07-20T21:33:05;96322.69;;;20.75;52.94
48778;BME280;34578;0.000;0.000;2023-07-20T21:38:05;96306.66;;;20.69;52.50
48778;BME280;34578;0.000;0.000;2023-07-20T21:43:06;96307.50;;;20.69;52.67
48778;BME280;34578;0.000;0.000;2023-07-20T21:48:06;96313.59;;;20.59;52.81
48778;BME280;34578;0.000;0.000;2023-07-20T21:53:06;96308.53;;;20.56;53.70
48778;BME280;34578;0.000;0.000;2023-07-20T21:58:07;96318.09;;;20.42;53.94
48778;BME280;34578;0.000;0.000;2023-07-20T22:03:07;96302.84;;;20.39;53.66
48778;BME280;34578;0.000;0.000;2023-07-20T22:08:07;96302.91;;;20.37;53.74
48778;BME280;34578;0.000;0.000;2023-07-20T22:13:09;96297.91;;;20.31;53.41
48778;BME280;34578;0.000;0.000;2023-07-20T22:18:09;96298.63;;;20.38;53.48
48778;BME280;34578;0.000;0.000;2023-07-20T22:23:11;96301.19;;;20.38;53.32
48778;BME280;34578;0.000;0.000;2023-07-20T22:28:11;96308.06;;;20.31;53.43
48778;BME280;34578;0.000;0.000;2023-07-20T22:33:11;96303.00;;;20.31;53.28
48778;BME280;34578;0.000;0.000;2023-07-20T22:38:12;96297.84;;;20.35;53.29
48778;BME280;34578;0.000;0.000;2023-07-20T22:43:12;96294.47;;;20.35;53.50
48778;BME280;34578;0.000;0.000;2023-07-20T22:48:12;96303.84;;;20.30;53.28
48778;BME280;34578;0.000;0.000;2023-07-20T22:53:15;96302.25;;;20.23;53.97
48778;BME280;34578;0.000;0.000;2023-07-20T22:58:15;96288.84;;;20.13;53.84
48778;BME280;34578;0.000;0.000;2023-07-20T23:03:16;96298.91;;;20.19;53.42
48778;BME280;34578;0.000;0.000;2023-07-20T23:08:16;96297.22;;;20.21;53.60
48778;BME280;34578;0.000;0.000;2023-07-20T23:13:17;96284.59;;;20.14;53.84
48778;BME280;34578;0.000;0.000;2023-07-20T23:18:17;96287.13;;;20.14;53.73
48778;BME280;34578;0.000;0.000;2023-07-20T23:23:17;96287.25;;;20.05;53.88
48778;BME280;34578;0.000;0.000;2023-07-20T23:28:18;96284.75;;;20.00;54.27
48778;BME280;34578;0.000;0.000;2023-07-20T23:33:19;96284.72;;;20.05;54.07
48778;BME280;34578;0.000;0.000;2023-07-20T23:38:20;96272.84;;;20.05;53.99
48778;BME280;34578;0.000;0.000;2023-07-20T23:43:21;96283.00;;;20.04;54.00
48778;BME280;34578;0.000;0.000;2023-07-20T23:48:21;96281.31;;;20.06;53.84
48778;BME280;34578;0.000;0.000;2023-07-20T23:53:26;96269.50;;;20.00;54.11
48778;BME280;34578;0.000;0.000;2023-07-20T23:58:26;96272.94;;;19.96;54.10
